North Island Naval Air Station-Halsey Field
KNZY : now visible

Airfield :











YOU CAN JOIN US ON...

 
LOGIN :

Register | Disclaimer

   EN    FR    IT 

 









Legend :    VFR   Marginal VFR   IFR   Intensive IFR   Very Intensive IFR
Visi :
Ceiling :
>= 8 km
>= 3000ft
5 to 8 km
1000 to 3000 ft
1500m to 5 km
500 to 1000 ft
800 to 1500m
200 to 500 ft
< 800m
< 200 ft
Symbols :   Thunderstorms  Fog  Heavy snow  Heavy precipitations  Wind > 20 kt






- Airport Elevation : 26 ft


KNZY - North Island Naval Air Station-Halsey Field

CURRENT METAR :
  • 131452Z 22004KT 8SM OVC010 19/18 A2995 RMK AO2 SLP142 T01890183 53010 $

EXPIRED METARs :
  • 131359Z 00000KT 9SM OVC009 18/18 A2993 RMK AO2 T01830183 $
  • 131252Z AUTO 00000KT 10SM OVC008 18/18 A2992 RMK AO2 SLP132 T01830183 $
  • 131152Z AUTO 00000KT 10SM OVC008 18/18 A2992 RMK AO2 SLP132 T01830183 10183 20183 53016 $
  • 131052Z AUTO 00000KT 10SM OVC008 18/18 A2989 RMK AO2 SLP122 T01830183 $

TAF TAF KNZY
Valid from the 13 at 07:00 until the 14 at 07:00 UTC


1307/1407 VRB06KT 9999 BKN010 QNH2983INS
TEMPO 1308/1314 8000 BR OVC006
BECMG 1315/1317 24007KT 9999 BKN011 QNH2990INS
BECMG 1403/1405 VRB06KT 9999 BKN012 BKN200 QNH2983INS TX21/1321Z TN18/1312Z FS30205
KZLA FIR / North America



MET'MAP, your aeronautical weather chart ! - Copyright ORBIFLY December 2007 - Disclaimer

ORBIFLY MET'MAP TEAM :

Programming & Development : Alexandra Zaïnal
Original concept : Baudouin d'Aumeries
Technical & hardware support : Manuel Goepfert
Assistance : Marc-Olivier Méhu




SOURCES & CREDITS :

   NOAA       Earth
Advisory